createdAt,value
2023-01-12T00:01:59.144Z,4.41
2023-01-12T00:04:26.843Z,4.54
2023-01-12T00:06:54.981Z,4.54
2023-01-12T00:09:22.510Z,4.49
2023-01-12T00:11:50.019Z,4.48
2023-01-12T00:14:17.559Z,4.45
2023-01-12T00:16:45.459Z,4.45
2023-01-12T00:19:21.710Z,4.46
2023-01-12T00:21:59.042Z,4.57
2023-01-12T00:24:28.321Z,4.71
2023-01-12T00:26:57.430Z,4.76
2023-01-12T00:29:26.353Z,4.81
2023-01-12T00:31:55.300Z,4.90
2023-01-12T00:34:23.019Z,4.92
2023-01-12T00:36:50.516Z,4.96
2023-01-12T00:39:18.380Z,4.95
2023-01-12T00:42:04.762Z,5.01
2023-01-12T00:44:50.912Z,5.01
2023-01-12T00:47:19.006Z,5.00
2023-01-12T00:49:47.161Z,5.03
2023-01-12T00:52:29.391Z,5.00
2023-01-12T00:54:58.586Z,4.93
2023-01-12T00:57:26.217Z,4.94
2023-01-12T00:59:58.387Z,4.89
2023-01-12T01:02:27.673Z,4.93
2023-01-12T01:04:56.335Z,4.94
2023-01-12T01:07:24.692Z,4.89
2023-01-12T01:09:52.246Z,4.80
2023-01-12T01:12:19.924Z,4.77
2023-01-12T01:14:48.455Z,4.73
2023-01-12T01:17:15.994Z,4.71
2023-01-12T01:19:43.861Z,4.73
2023-01-12T01:22:13.129Z,4.71
2023-01-12T01:24:41.644Z,4.77
2023-01-12T01:27:09.090Z,4.73
2023-01-12T01:29:36.791Z,4.74
2023-01-12T01:32:04.640Z,4.75
2023-01-12T01:34:32.443Z,4.78
2023-01-12T01:36:59.924Z,4.79
2023-01-12T01:39:27.429Z,4.82
2023-01-12T01:41:54.976Z,4.78
2023-01-12T01:44:31.463Z,4.78
2023-01-12T01:47:02.766Z,4.85
2023-01-12T01:49:49.579Z,4.82
2023-01-12T01:52:25.997Z,4.79
2023-01-12T01:54:58.073Z,4.77
2023-01-12T01:57:31.949Z,4.73
2023-01-12T02:00:01.094Z,4.78
2023-01-12T02:02:28.902Z,4.77
2023-01-12T02:04:57.593Z,4.69
2023-01-12T02:07:25.880Z,4.68
2023-01-12T02:09:53.343Z,4.74
2023-01-12T02:12:39.546Z,4.79
2023-01-12T02:15:26.347Z,4.72
2023-01-12T02:18:10.847Z,4.68
2023-01-12T02:20:58.378Z,4.68
2023-01-12T02:23:34.833Z,4.67
2023-01-12T02:26:24.289Z,4.67
2023-01-12T02:29:09.949Z,4.64
2023-01-12T02:31:40.359Z,4.71
2023-01-12T02:34:24.647Z,4.67
2023-01-12T02:37:04.347Z,4.61
2023-01-12T02:39:59.580Z,4.65
2023-01-12T02:42:49.710Z,4.63
2023-01-12T02:45:33.932Z,4.57
2023-01-12T02:48:40.681Z,4.59
2023-01-12T02:51:37.190Z,4.52
2023-01-12T02:54:11.100Z,4.44
2023-01-12T02:56:45.421Z,4.36
2023-01-12T02:59:21.349Z,4.40
2023-01-12T03:01:51.406Z,4.38
2023-01-12T03:04:20.112Z,4.39
2023-01-12T03:06:57.099Z,4.41
2023-01-12T03:09:31.095Z,4.39
2023-01-12T03:12:06.300Z,4.41
2023-01-12T03:14:37.549Z,4.40
2023-01-12T03:17:11.357Z,4.35
2023-01-12T03:19:39.859Z,4.35
2023-01-12T03:22:13.328Z,4.32
2023-01-12T03:24:56.809Z,4.37
2023-01-12T03:27:36.030Z,4.30
2023-01-12T03:30:11.279Z,4.33
2023-01-12T03:32:38.980Z,4.29
2023-01-12T03:35:08.909Z,4.23
2023-01-12T03:37:50.229Z,4.24
2023-01-12T03:40:21.529Z,4.20
2023-01-12T03:42:58.338Z,4.27
2023-01-12T03:45:31.810Z,4.34
2023-01-12T03:48:12.177Z,4.35
2023-01-12T03:50:51.868Z,4.39
2023-01-12T03:53:22.159Z,4.48
2023-01-12T03:55:54.049Z,4.55
2023-01-12T03:58:23.819Z,4.53
2023-01-12T04:00:51.792Z,4.48
2023-01-12T04:03:19.289Z,4.51
2023-01-12T04:05:46.845Z,4.51
2023-01-12T04:08:16.082Z,4.51
2023-01-12T04:10:43.771Z,4.50
2023-01-12T04:13:11.318Z,4.51
2023-01-12T04:15:42.633Z,4.53
2023-01-12T04:18:11.880Z,4.53
2023-01-12T04:20:40.325Z,4.54
2023-01-12T04:23:07.857Z,4.62
2023-01-12T04:25:35.989Z,4.62
2023-01-12T04:28:04.135Z,4.57
2023-01-12T04:30:33.762Z,4.62
2023-01-12T04:33:08.119Z,4.69
2023-01-12T04:35:35.779Z,4.69
2023-01-12T04:38:07.720Z,4.63
2023-01-12T04:40:35.341Z,4.58
2023-01-12T04:43:07.946Z,4.62
2023-01-12T04:45:39.095Z,4.63
2023-01-12T04:48:12.656Z,4.63
2023-01-12T04:50:41.086Z,4.63
2023-01-12T04:53:11.008Z,4.60
2023-01-12T04:55:41.389Z,4.62
2023-01-12T04:58:09.613Z,4.59
2023-01-12T05:00:37.076Z,4.66
2023-01-12T05:03:04.580Z,4.70
2023-01-12T05:05:33.615Z,4.77
2023-01-12T05:08:21.127Z,4.79
2023-01-12T05:10:56.145Z,4.80
2023-01-12T05:13:25.724Z,4.69
2023-01-12T05:15:53.145Z,4.68
2023-01-12T05:18:20.777Z,4.70
2023-01-12T05:20:48.289Z,4.78
2023-01-12T05:23:15.706Z,4.76
2023-01-12T05:25:43.392Z,4.74
2023-01-12T05:28:10.951Z,4.72
2023-01-12T05:30:38.509Z,4.68
2023-01-12T05:33:06.090Z,4.69
2023-01-12T05:35:33.569Z,4.70
2023-01-12T05:38:01.117Z,4.74
2023-01-12T05:40:28.645Z,4.77
2023-01-12T05:43:14.499Z,4.78
2023-01-12T05:49:54.908Z,4.81
2023-01-12T05:52:22.427Z,4.74
2023-01-12T05:54:49.998Z,4.74
2023-01-12T05:57:17.438Z,4.70
2023-01-12T05:59:44.909Z,4.70
2023-01-12T06:02:17.253Z,4.67
2023-01-12T06:04:44.787Z,4.67
2023-01-12T06:07:13.804Z,4.70
2023-01-12T06:09:41.747Z,4.78
2023-01-12T06:12:31.013Z,4.74
2023-01-12T06:14:58.514Z,4.66
2023-01-12T06:17:26.045Z,4.66
2023-01-12T06:19:53.646Z,4.73
2023-01-12T06:22:21.134Z,4.81
2023-01-12T06:24:49.392Z,4.80
2023-01-12T06:27:16.954Z,4.82
2023-01-12T06:29:44.473Z,4.89
2023-01-12T06:32:11.959Z,4.90
2023-01-12T06:34:39.414Z,4.94
2023-01-12T06:37:08.363Z,4.99
2023-01-12T06:39:35.856Z,4.99
2023-01-12T06:42:24.100Z,5.01
2023-01-12T06:44:51.636Z,5.02
2023-01-12T06:47:19.165Z,5.05
2023-01-12T06:49:46.688Z,5.03
2023-01-12T06:52:14.298Z,5.02
2023-01-12T06:54:41.764Z,5.01
2023-01-12T06:57:09.386Z,4.99
2023-01-12T06:59:38.938Z,4.98
2023-01-12T07:02:06.619Z,4.94
2023-01-12T07:04:34.231Z,4.90
2023-01-12T07:07:01.789Z,4.90
2023-01-12T07:09:29.463Z,4.94
2023-01-12T07:11:56.938Z,4.95
2023-01-12T07:14:24.744Z,4.92
2023-01-12T07:16:52.400Z,4.89
2023-01-12T07:19:19.882Z,4.95
2023-01-12T07:21:49.486Z,4.88
2023-01-12T07:24:17.467Z,4.86
2023-01-12T07:26:47.924Z,4.91
2023-01-12T07:29:15.899Z,4.92
2023-01-12T07:31:44.574Z,4.94
2023-01-12T07:34:12.627Z,5.15
2023-01-12T07:36:40.123Z,5.51
2023-01-12T07:39:08.727Z,5.82
2023-01-12T07:41:54.865Z,5.89
2023-01-12T07:44:23.458Z,5.88
2023-01-12T07:46:50.973Z,5.88
2023-01-12T07:49:18.518Z,5.86
2023-01-12T07:51:46.224Z,5.87
2023-01-12T07:54:13.772Z,5.92
2023-01-12T07:56:44.465Z,5.95
2023-01-12T07:59:12.076Z,6.00
2023-01-12T08:01:41.202Z,6.05
2023-01-12T08:04:08.836Z,6.07
2023-01-12T08:06:36.450Z,6.05
2023-01-12T08:09:04.348Z,6.08
2023-01-12T08:11:31.875Z,6.10
2023-01-12T08:13:59.674Z,6.07
2023-01-12T08:16:33.611Z,6.07
2023-01-12T08:19:07.917Z,6.15
2023-01-12T08:21:46.061Z,6.23
2023-01-12T08:24:18.157Z,6.29
2023-01-12T08:26:48.256Z,6.34
2023-01-12T08:29:30.098Z,6.48
2023-01-12T08:32:04.689Z,6.58
2023-01-12T08:34:34.380Z,6.60
2023-01-12T08:37:06.256Z,6.72
2023-01-12T08:39:35.525Z,6.75
2023-01-12T08:42:04.536Z,6.83
2023-01-12T08:44:41.174Z,6.85
2023-01-12T08:47:21.323Z,6.88
2023-01-12T08:49:48.973Z,6.97
2023-01-12T08:52:16.842Z,7.03
2023-01-12T08:54:44.865Z,7.07
2023-01-12T08:57:12.608Z,7.09
2023-01-12T08:59:40.449Z,7.22
2023-01-12T09:02:10.736Z,7.22
2023-01-12T09:04:40.467Z,7.27
2023-01-12T09:07:09.296Z,7.26
2023-01-12T09:09:37.113Z,7.33
2023-01-12T09:12:05.102Z,7.37
2023-01-12T09:14:38.923Z,7.50
2023-01-12T09:17:07.213Z,7.58
2023-01-12T09:19:34.897Z,7.62
2023-01-12T09:22:02.430Z,7.65
2023-01-12T09:24:30.165Z,7.62
2023-01-12T09:26:57.653Z,7.59
2023-01-12T09:29:25.179Z,7.53
2023-01-12T09:31:52.784Z,7.60
2023-01-12T09:34:20.372Z,7.60
2023-01-12T09:36:49.008Z,7.59
2023-01-12T09:39:28.743Z,7.58
2023-01-12T09:42:16.097Z,7.58
2023-01-12T09:45:05.966Z,7.62
2023-01-12T09:47:42.224Z,7.57
2023-01-12T09:50:13.553Z,7.54
2023-01-12T09:52:53.608Z,7.57
2023-01-12T09:55:24.188Z,7.58
2023-01-12T09:57:58.774Z,7.49
2023-01-12T10:00:29.412Z,7.44
2023-01-12T10:03:41.660Z,7.46
2023-01-12T10:06:15.775Z,7.41
2023-01-12T10:08:50.504Z,7.50
2023-01-12T10:11:47.834Z,7.50
2023-01-12T10:14:23.858Z,7.55
2023-01-12T10:16:53.996Z,7.55
2023-01-12T10:19:28.026Z,7.56
2023-01-12T10:21:56.267Z,7.49
2023-01-12T10:24:25.554Z,7.52
2023-01-12T10:27:02.599Z,7.51
2023-01-12T10:29:32.957Z,7.53
2023-01-12T10:32:00.545Z,7.53
2023-01-12T10:34:30.331Z,7.48
2023-01-12T10:37:05.789Z,7.50
2023-01-12T10:39:43.472Z,7.54
2023-01-12T10:42:36.962Z,7.53
2023-01-12T10:45:15.483Z,7.51
2023-01-12T10:47:45.039Z,7.54
2023-01-12T10:50:29.326Z,7.48
2023-01-12T10:53:07.455Z,7.43
2023-01-12T10:55:39.811Z,7.38
2023-01-12T10:58:22.573Z,7.39
2023-01-12T11:00:52.308Z,7.36
2023-01-12T11:03:32.022Z,7.41
2023-01-12T11:06:30.988Z,7.41
2023-01-12T11:08:59.061Z,7.44
2023-01-12T11:11:33.534Z,7.45
2023-01-12T11:14:03.927Z,7.54
2023-01-12T11:16:32.709Z,7.49
2023-01-12T11:19:33.114Z,7.48
2023-01-12T11:22:07.736Z,7.42
2023-01-12T11:24:49.332Z,7.47
2023-01-12T11:27:34.603Z,7.43
2023-01-12T11:30:18.653Z,7.42
2023-01-12T11:32:46.027Z,7.39
2023-01-12T11:35:19.540Z,7.39
2023-01-12T11:37:47.512Z,7.41
2023-01-12T11:40:40.210Z,7.37
2023-01-12T11:43:32.329Z,7.34
2023-01-12T11:46:11.084Z,7.32
2023-01-12T11:49:01.561Z,7.35
2023-01-12T11:51:29.830Z,7.42
2023-01-12T11:53:57.994Z,7.43
2023-01-12T11:57:06.237Z,7.47
2023-01-12T11:59:43.533Z,7.52
2023-01-12T12:02:37.687Z,7.51
2023-01-12T12:05:23.775Z,7.50
2023-01-12T12:08:14.907Z,7.48
2023-01-12T12:10:54.429Z,7.49
2023-01-12T12:13:43.870Z,7.52
2023-01-12T12:16:14.287Z,7.54
2023-01-12T12:18:47.690Z,7.55
2023-01-12T12:21:33.700Z,7.50
2023-01-12T12:24:04.287Z,7.48
2023-01-12T12:26:40.439Z,7.46
2023-01-12T12:29:29.694Z,7.42
2023-01-12T12:32:23.806Z,7.41
2023-01-12T12:35:36.980Z,7.33
2023-01-12T12:38:36.905Z,7.40
2023-01-12T12:42:00.819Z,7.35
2023-01-12T12:45:19.387Z,7.31
2023-01-12T12:47:59.567Z,7.27
2023-01-12T12:50:32.436Z,7.19
2023-01-12T12:53:12.742Z,7.11
2023-01-12T12:55:41.266Z,7.07
2023-01-12T12:58:20.971Z,7.06
2023-01-12T13:00:50.558Z,7.06
2023-01-12T13:04:08.253Z,7.01
2023-01-12T13:06:48.555Z,6.95
2023-01-12T13:09:16.037Z,6.91
2023-01-12T13:11:59.208Z,6.86
2023-01-12T13:14:30.153Z,6.83
2023-01-12T13:17:20.384Z,6.76
2023-01-12T13:19:49.033Z,6.73
2023-01-12T13:22:50.952Z,6.64
2023-01-12T13:25:22.254Z,6.58
2023-01-12T13:28:11.101Z,6.60
2023-01-12T13:30:50.950Z,6.55
2023-01-12T13:33:28.223Z,6.50
2023-01-12T13:36:10.281Z,6.50
2023-01-12T13:38:54.305Z,6.44
2023-01-12T13:41:47.341Z,6.45
2023-01-12T13:44:33.805Z,6.52
2023-01-12T13:47:10.347Z,6.59
2023-01-12T13:49:46.920Z,6.58
2023-01-12T13:52:35.892Z,6.68
2023-01-12T13:55:18.120Z,6.72
2023-01-12T13:57:56.986Z,6.62
2023-01-12T14:00:25.457Z,6.70
2023-01-12T14:02:54.003Z,6.66
2023-01-12T14:05:50.533Z,6.70
2023-01-12T14:08:51.180Z,6.75
2023-01-12T14:11:37.077Z,6.72
2023-01-12T14:14:51.198Z,6.79
2023-01-12T14:17:45.474Z,6.80
2023-01-12T14:20:19.005Z,6.73
2023-01-12T14:22:46.954Z,6.76
2023-01-12T14:25:20.603Z,6.74
2023-01-12T14:27:56.148Z,6.77
2023-01-12T14:30:27.239Z,6.76
2023-01-12T14:32:55.423Z,6.72
2023-01-12T14:35:25.476Z,6.74
2023-01-12T14:38:01.269Z,6.81
2023-01-12T14:40:33.790Z,6.82
2023-01-12T14:43:21.008Z,6.81
2023-01-12T14:46:17.454Z,6.84
2023-01-12T14:49:17.452Z,6.85
2023-01-12T14:51:55.340Z,6.85
2023-01-12T14:54:28.452Z,6.89
2023-01-12T14:57:03.863Z,6.93
2023-01-12T14:59:38.663Z,6.92
2023-01-12T15:02:15.102Z,6.99
2023-01-12T15:05:10.686Z,7.01
2023-01-12T15:07:58.396Z,6.96
2023-01-12T15:10:28.312Z,6.99
2023-01-12T15:12:57.744Z,7.02
2023-01-12T15:15:50.655Z,6.99
2023-01-12T15:18:36.979Z,7.02
2023-01-12T15:21:23.180Z,7.04
2023-01-12T15:24:09.503Z,7.07
2023-01-12T15:26:37.055Z,7.07
2023-01-12T15:29:05.312Z,7.02
2023-01-12T15:31:36.515Z,6.96
2023-01-12T15:34:06.023Z,6.96
2023-01-12T15:36:33.518Z,7.01
2023-01-12T15:39:01.082Z,6.97
2023-01-12T15:41:49.680Z,7.03
2023-01-12T15:44:22.095Z,6.98
2023-01-12T15:46:49.577Z,7.06
2023-01-12T15:49:17.305Z,7.05
2023-01-12T15:51:50.929Z,7.05
2023-01-12T15:54:20.347Z,7.04
2023-01-12T15:56:48.638Z,7.09
2023-01-12T15:59:16.790Z,7.15
2023-01-12T16:01:48.583Z,7.12
2023-01-12T16:04:42.126Z,7.06
2023-01-12T16:07:10.020Z,7.06
2023-01-12T16:09:37.546Z,7.08
2023-01-12T16:12:05.364Z,7.07
2023-01-12T16:14:32.895Z,7.09
2023-01-12T16:17:00.428Z,7.08
2023-01-12T16:19:28.425Z,7.06
2023-01-12T16:21:56.454Z,7.00
2023-01-12T16:24:26.846Z,7.03
2023-01-12T16:26:54.611Z,7.08
2023-01-12T16:29:23.846Z,7.08
2023-01-12T16:31:51.551Z,7.12
2023-01-12T16:34:22.864Z,7.09
2023-01-12T16:36:50.719Z,7.08
2023-01-12T16:39:18.828Z,7.12
2023-01-12T16:41:46.401Z,7.15
2023-01-12T16:44:13.993Z,7.17
2023-01-12T16:46:41.833Z,7.18
2023-01-12T16:49:09.306Z,7.25
2023-01-12T16:51:37.220Z,7.30
2023-01-12T16:54:04.915Z,7.29
2023-01-12T16:56:32.495Z,7.34
2023-01-12T16:59:00.041Z,7.42
2023-01-12T17:01:27.792Z,7.40
2023-01-12T17:03:58.472Z,7.40
2023-01-12T17:06:28.130Z,7.38
2023-01-12T17:08:56.142Z,7.38
2023-01-12T17:11:24.487Z,7.39
2023-01-12T17:13:55.177Z,7.41
2023-01-12T17:16:24.740Z,7.41
2023-01-12T17:18:52.763Z,7.40
2023-01-12T17:21:21.520Z,7.41
2023-01-12T17:23:49.543Z,7.41
2023-01-12T17:26:19.000Z,7.45
2023-01-12T17:28:47.476Z,7.46
2023-01-12T17:31:18.289Z,7.48
2023-01-12T17:33:46.708Z,7.52
2023-01-12T17:36:15.067Z,7.54
2023-01-12T17:38:42.636Z,7.52
2023-01-12T17:41:34.320Z,7.51
2023-01-12T17:44:03.931Z,7.55
2023-01-12T17:46:32.633Z,7.56
2023-01-12T17:49:02.269Z,7.62
2023-01-12T17:51:30.031Z,7.66
2023-01-12T17:53:58.862Z,7.65
2023-01-12T17:56:28.459Z,7.64
2023-01-12T17:58:56.432Z,7.66
2023-01-12T18:01:26.379Z,7.70
2023-01-12T18:03:53.988Z,7.75
2023-01-12T18:06:29.421Z,7.77
2023-01-12T18:08:59.753Z,7.74
2023-01-12T18:11:28.919Z,7.65
2023-01-12T18:13:56.840Z,7.70
2023-01-12T18:16:24.681Z,7.75
2023-01-12T18:18:53.107Z,7.75
2023-01-12T18:21:23.456Z,7.72
2023-01-12T18:23:52.132Z,7.69
2023-01-12T18:26:23.716Z,7.74
2023-01-12T18:28:55.010Z,7.71
2023-01-12T18:31:25.189Z,7.72
2023-01-12T18:34:04.382Z,7.72
2023-01-12T18:36:40.168Z,7.64
2023-01-12T18:39:12.191Z,7.69
2023-01-12T18:41:58.553Z,7.64
2023-01-12T18:44:26.621Z,7.65
2023-01-12T18:47:14.541Z,7.65
2023-01-12T18:49:47.964Z,7.63
2023-01-12T18:52:36.059Z,7.63
2023-01-12T18:55:05.554Z,7.64
2023-01-12T18:57:33.131Z,7.64
2023-01-12T19:00:15.770Z,7.61
2023-01-12T19:02:44.586Z,7.60
2023-01-12T19:05:24.000Z,7.59
2023-01-12T19:07:51.749Z,7.68
2023-01-12T19:10:19.287Z,7.69
2023-01-12T19:12:46.797Z,7.70
2023-01-12T19:15:33.004Z,7.73
2023-01-12T19:18:01.076Z,7.73
2023-01-12T19:20:32.110Z,7.71
2023-01-12T19:23:18.301Z,7.80
2023-01-12T19:26:04.688Z,7.82
2023-01-12T19:28:36.040Z,7.81
2023-01-12T19:31:07.036Z,7.82
2023-01-12T19:33:34.567Z,7.92
2023-01-12T19:36:07.967Z,7.92
2023-01-12T19:38:38.708Z,7.89
2023-01-12T19:41:13.383Z,7.87
2023-01-12T19:43:45.315Z,7.89
2023-01-12T19:46:15.885Z,7.92
2023-01-12T19:48:44.661Z,7.97
2023-01-12T19:51:12.413Z,7.97
2023-01-12T19:53:40.514Z,7.90
2023-01-12T19:56:13.189Z,7.88
2023-01-12T19:58:40.865Z,7.88
2023-01-12T20:01:08.855Z,7.91
2023-01-12T20:03:36.474Z,7.94
2023-01-12T20:06:07.896Z,8.04
2023-01-12T20:08:35.381Z,8.12
2023-01-12T20:11:05.348Z,8.19
2023-01-12T20:13:34.622Z,8.17
2023-01-12T20:16:07.410Z,8.20
2023-01-12T20:18:34.984Z,8.19
2023-01-12T20:21:06.877Z,8.21
2023-01-12T20:23:34.860Z,8.20
2023-01-12T20:26:06.219Z,8.26
2023-01-12T20:28:34.587Z,8.19
2023-01-12T20:31:02.182Z,8.13
2023-01-12T20:33:29.597Z,8.08
2023-01-12T20:35:58.461Z,8.15
2023-01-12T20:38:25.981Z,8.18
2023-01-12T20:40:53.550Z,8.18
2023-01-12T20:43:21.012Z,8.19
2023-01-12T20:45:48.433Z,8.23
2023-01-12T20:48:16.334Z,8.19
2023-01-12T20:50:45.617Z,8.17
2023-01-12T20:53:14.129Z,8.21
2023-01-12T20:55:48.029Z,8.24
2023-01-12T20:58:15.714Z,8.24
2023-01-12T21:00:43.679Z,8.27
2023-01-12T21:03:11.382Z,8.27
2023-01-12T21:05:43.848Z,8.26
2023-01-12T21:08:11.995Z,8.30
2023-01-12T21:10:41.058Z,8.29
2023-01-12T21:13:08.567Z,8.29
2023-01-12T21:15:36.700Z,8.26
2023-01-12T21:18:04.472Z,8.19
2023-01-12T21:20:31.984Z,8.21
2023-01-12T21:23:00.258Z,8.21
2023-01-12T21:25:28.867Z,8.27
2023-01-12T21:27:56.435Z,8.33
2023-01-12T21:30:23.961Z,8.35
2023-01-12T21:32:52.962Z,8.33
2023-01-12T21:35:20.513Z,8.30
2023-01-12T21:37:48.024Z,8.33
2023-01-12T21:40:16.820Z,8.34
2023-01-12T21:43:02.829Z,8.39
2023-01-12T21:45:30.406Z,8.40
2023-01-12T21:47:57.865Z,8.40
2023-01-12T21:50:25.609Z,8.47
2023-01-12T21:52:53.125Z,8.55
2023-01-12T21:55:20.938Z,8.54
2023-01-12T21:57:48.519Z,8.48
2023-01-12T22:00:16.798Z,8.51
2023-01-12T22:02:44.489Z,8.54
2023-01-12T22:05:13.761Z,8.50
2023-01-12T22:07:41.408Z,8.50
2023-01-12T22:10:22.246Z,8.57
2023-01-12T22:12:53.198Z,8.50
2023-01-12T22:15:21.959Z,8.54
2023-01-12T22:17:51.378Z,8.56
2023-01-12T22:20:19.340Z,8.60
2023-01-12T22:22:46.896Z,8.64
2023-01-12T22:25:16.130Z,8.60
2023-01-12T22:27:44.521Z,8.62
2023-01-12T22:30:17.976Z,8.56
2023-01-12T22:32:45.693Z,8.49
2023-01-12T22:35:13.778Z,8.46
2023-01-12T22:37:41.740Z,8.47
2023-01-12T22:40:11.205Z,8.47
2023-01-12T22:42:58.831Z,8.45
2023-01-12T22:45:26.397Z,8.47
2023-01-12T22:47:55.659Z,8.41
2023-01-12T22:50:24.524Z,8.39
2023-01-12T22:52:54.812Z,8.37
2023-01-12T22:55:24.337Z,8.37
2023-01-12T22:57:52.509Z,8.43
2023-01-12T23:00:21.209Z,8.42
2023-01-12T23:03:01.933Z,8.44
2023-01-12T23:05:33.367Z,8.43
2023-01-12T23:08:01.472Z,8.43
2023-01-12T23:10:29.689Z,8.38
2023-01-12T23:13:16.200Z,8.46
2023-01-12T23:15:56.638Z,8.54
2023-01-12T23:18:30.014Z,8.49
2023-01-12T23:21:03.704Z,8.52
2023-01-12T23:23:31.764Z,8.54
2023-01-12T23:26:04.041Z,8.48
2023-01-12T23:28:36.986Z,8.47
2023-01-12T23:31:11.215Z,8.46
2023-01-12T23:33:39.983Z,8.49
2023-01-12T23:36:10.836Z,8.47
2023-01-12T23:38:38.323Z,8.45
2023-01-12T23:41:20.452Z,8.44
2023-01-12T23:43:49.319Z,8.52
2023-01-12T23:46:20.531Z,8.56
2023-01-12T23:48:48.415Z,8.57
2023-01-12T23:51:16.324Z,8.62
2023-01-12T23:53:45.325Z,8.59
2023-01-12T23:56:15.076Z,8.54
2023-01-12T23:58:43.513Z,8.47
